createdAt,value
2022-11-28T00:01:58.799Z,20.16
2022-11-28T00:08:23.151Z,20.09
2022-11-28T00:14:47.623Z,20.01
2022-11-28T00:21:12.010Z,19.93
2022-11-28T00:27:36.241Z,19.87
2022-11-28T00:34:00.417Z,19.79
2022-11-28T00:40:24.731Z,19.72
2022-11-28T00:46:48.975Z,19.63
2022-11-28T00:53:13.380Z,19.57
2022-11-28T00:59:37.665Z,19.50
2022-11-28T01:06:01.968Z,19.42
2022-11-28T01:12:26.175Z,19.35
2022-11-28T01:18:50.155Z,19.28
2022-11-28T01:25:14.421Z,19.22
2022-11-28T01:31:38.662Z,19.15
2022-11-28T01:38:02.925Z,19.09
2022-11-28T01:44:36.096Z,19.04
2022-11-28T01:51:00.083Z,18.97
2022-11-28T01:57:24.434Z,18.91
2022-11-28T02:03:51.707Z,18.84
2022-11-28T02:10:15.957Z,18.79
2022-11-28T02:16:49.238Z,18.73
2022-11-28T02:23:22.219Z,18.67
2022-11-28T02:30:04.996Z,18.62
2022-11-28T02:36:35.242Z,18.57
2022-11-28T02:42:59.623Z,18.51
2022-11-28T02:49:39.205Z,18.46
2022-11-28T02:56:03.519Z,18.41
2022-11-28T03:02:30.757Z,18.36
2022-11-28T03:08:58.064Z,18.31
2022-11-28T03:15:25.340Z,18.26
2022-11-28T03:21:50.088Z,18.22
2022-11-28T03:28:16.959Z,18.17
2022-11-28T03:34:41.606Z,18.13
2022-11-28T03:41:06.479Z,18.09
2022-11-28T03:47:33.686Z,18.04
2022-11-28T03:54:00.530Z,17.99
2022-11-28T04:00:27.559Z,17.95
2022-11-28T04:07:03.741Z,17.91
2022-11-28T04:13:37.544Z,17.87
2022-11-28T04:20:01.936Z,17.83
2022-11-28T04:26:26.500Z,17.79
2022-11-28T04:32:50.872Z,17.76
2022-11-28T04:39:15.212Z,17.71
2022-11-28T04:45:48.570Z,17.68
2022-11-28T04:52:19.112Z,17.64
2022-11-28T04:58:43.589Z,17.60
2022-11-28T05:05:03.593Z,17.56
2022-11-28T05:11:27.915Z,17.52
2022-11-28T05:17:52.307Z,17.48
2022-11-28T05:24:16.580Z,17.45
2022-11-28T05:30:40.925Z,17.43
2022-11-28T05:37:05.330Z,17.38
2022-11-28T05:43:29.756Z,17.37
2022-11-28T05:49:54.187Z,17.40
2022-11-28T05:56:18.527Z,17.47
2022-11-28T06:02:42.866Z,17.57
2022-11-28T06:09:07.296Z,17.70
2022-11-28T06:15:34.882Z,17.84
2022-11-28T06:22:04.644Z,17.98
2022-11-28T06:28:29.036Z,18.11
2022-11-28T06:34:53.338Z,18.26
2022-11-28T06:41:17.798Z,18.43
2022-11-28T06:47:42.166Z,18.58
2022-11-28T06:54:06.590Z,18.72
2022-11-28T07:00:30.850Z,18.85
2022-11-28T07:06:55.514Z,18.97
2022-11-28T07:13:19.956Z,19.09
2022-11-28T07:19:44.740Z,19.19
2022-11-28T07:26:10.181Z,19.31
2022-11-28T07:32:34.601Z,19.42
2022-11-28T07:38:59.048Z,19.54
2022-11-28T07:45:33.003Z,19.61
2022-11-28T07:52:07.920Z,19.71
2022-11-28T07:58:32.332Z,19.77
2022-11-28T08:04:56.806Z,19.83
2022-11-28T08:11:21.297Z,19.87
2022-11-28T08:17:45.619Z,19.91
2022-11-28T08:24:09.989Z,19.97
2022-11-28T08:30:34.457Z,20.06
2022-11-28T08:36:58.876Z,20.05
2022-11-28T08:43:23.286Z,20.01
2022-11-28T08:49:47.724Z,19.98
2022-11-28T08:56:12.168Z,19.97
2022-11-28T09:02:36.617Z,19.98
2022-11-28T09:09:01.065Z,20.03
2022-11-28T09:15:25.380Z,20.07
2022-11-28T09:21:54.571Z,20.13
2022-11-28T09:28:21.875Z,20.19
2022-11-28T09:34:46.232Z,20.28
2022-11-28T09:41:16.804Z,20.35
2022-11-28T09:47:41.194Z,20.40
2022-11-28T09:54:17.303Z,20.44
2022-11-28T10:00:41.683Z,20.51
2022-11-28T10:07:06.085Z,20.59
2022-11-28T10:14:07.326Z,20.59
2022-11-28T10:20:41.512Z,20.55
2022-11-28T10:27:06.118Z,20.54
2022-11-28T10:33:30.558Z,20.53
2022-11-28T10:39:54.955Z,20.55
2022-11-28T10:46:17.541Z,20.55
2022-11-28T10:52:47.893Z,20.60
2022-11-28T10:59:15.360Z,20.60
2022-11-28T11:05:39.683Z,20.62
2022-11-28T11:12:06.661Z,20.66
2022-11-28T11:18:33.935Z,20.71
2022-11-28T11:25:13.447Z,20.76
2022-11-28T11:31:42.906Z,20.83
2022-11-28T11:38:19.444Z,20.84
2022-11-28T11:44:55.638Z,20.86
2022-11-28T11:51:19.930Z,20.88
2022-11-28T11:57:44.269Z,20.92
2022-11-28T12:04:52.517Z,20.89
2022-11-28T12:11:17.022Z,20.85
2022-11-28T12:17:58.802Z,20.86
2022-11-28T12:24:32.342Z,20.88
2022-11-28T12:31:02.461Z,20.89
2022-11-28T12:37:33.079Z,20.89
2022-11-28T12:44:27.767Z,20.90
2022-11-28T12:51:06.129Z,20.94
2022-11-28T12:57:30.757Z,20.96
2022-11-28T13:04:04.061Z,20.97
2022-11-28T13:10:40.747Z,20.97
2022-11-28T13:17:11.221Z,21.00
2022-11-28T13:23:35.867Z,21.03
2022-11-28T13:29:58.505Z,21.06
2022-11-28T13:43:33.710Z,21.05
2022-11-28T13:50:02.257Z,21.06
2022-11-28T13:56:47.997Z,21.07
2022-11-28T14:03:27.443Z,21.07
2022-11-28T14:10:04.103Z,21.09
2022-11-28T14:16:46.907Z,21.10
2022-11-28T14:23:32.911Z,21.12
2022-11-28T14:30:03.109Z,21.14
2022-11-28T14:36:44.620Z,21.13
2022-11-28T14:43:09.037Z,21.11
2022-11-28T14:49:39.588Z,21.13
2022-11-28T14:56:06.797Z,21.15
2022-11-28T15:02:31.266Z,21.16
2022-11-28T15:08:58.953Z,21.17
2022-11-28T15:15:23.281Z,21.18
2022-11-28T15:21:53.433Z,21.21
2022-11-28T15:28:17.854Z,21.23
2022-11-28T15:34:42.466Z,21.25
2022-11-28T15:41:01.255Z,21.27
2022-11-28T15:47:25.635Z,21.32
2022-11-28T15:53:59.193Z,21.35
2022-11-28T16:00:23.495Z,21.34
2022-11-28T16:06:47.912Z,21.34
2022-11-28T16:13:12.253Z,21.34
2022-11-28T16:19:36.015Z,21.35
2022-11-28T16:26:02.894Z,21.34
2022-11-28T16:32:27.309Z,21.35
2022-11-28T16:38:54.222Z,21.39
2022-11-28T16:45:21.441Z,21.41
2022-11-28T16:51:53.977Z,21.42
2022-11-28T16:58:27.459Z,21.46
2022-11-28T17:05:03.683Z,21.47
2022-11-28T17:11:28.118Z,21.47
2022-11-28T17:17:52.495Z,21.48
2022-11-28T17:24:16.938Z,21.51
2022-11-28T17:30:41.424Z,21.55
2022-11-28T17:37:05.807Z,21.57
2022-11-28T17:43:32.391Z,21.61
2022-11-28T17:50:00.367Z,21.64
2022-11-28T17:56:25.210Z,21.67
2022-11-28T18:02:50.171Z,21.66
2022-11-28T18:09:14.662Z,21.65
2022-11-28T18:15:39.046Z,21.68
2022-11-28T18:22:03.479Z,21.69
2022-11-28T18:28:27.793Z,21.63
2022-11-28T18:34:52.224Z,21.58
2022-11-28T18:41:16.593Z,21.54
2022-11-28T18:47:40.925Z,21.54
2022-11-28T18:54:05.227Z,21.54
2022-11-28T19:00:29.652Z,21.55
2022-11-28T19:06:53.983Z,21.55
2022-11-28T19:13:18.366Z,21.56
2022-11-28T19:19:42.942Z,21.60
2022-11-28T19:26:07.754Z,21.66
2022-11-28T19:32:32.020Z,21.69
2022-11-28T19:38:56.419Z,21.70
2022-11-28T19:45:20.851Z,21.67
2022-11-28T19:51:45.230Z,21.62
2022-11-28T19:58:09.589Z,21.58
2022-11-28T20:04:33.955Z,21.56
2022-11-28T20:10:58.267Z,21.55
2022-11-28T20:17:22.618Z,21.57
2022-11-28T20:23:47.005Z,21.57
2022-11-28T20:30:11.313Z,21.57
2022-11-28T20:36:35.709Z,21.59
2022-11-28T20:43:00.281Z,21.63
2022-11-28T20:49:24.655Z,21.68
2022-11-28T20:55:49.069Z,21.70
2022-11-28T21:02:16.431Z,21.69
2022-11-28T21:08:40.973Z,21.68
2022-11-28T21:15:05.290Z,21.69
2022-11-28T21:21:29.556Z,21.72
2022-11-28T21:27:53.933Z,21.72
2022-11-28T21:34:18.352Z,21.72
2022-11-28T21:40:42.681Z,21.72
2022-11-28T21:47:07.359Z,21.68
2022-11-28T21:53:31.643Z,21.62
2022-11-28T21:59:55.965Z,21.53
2022-11-28T22:06:02.812Z,21.46
2022-11-28T22:12:27.616Z,21.38
2022-11-28T22:18:51.908Z,21.27
2022-11-28T22:25:16.336Z,21.17
2022-11-28T22:31:40.492Z,21.09
2022-11-28T22:38:04.843Z,21.01
2022-11-28T22:44:29.253Z,20.93
2022-11-28T22:50:53.672Z,20.85
2022-11-28T22:57:17.982Z,20.77
2022-11-28T23:03:42.272Z,20.70
2022-11-28T23:10:06.725Z,20.61
2022-11-28T23:16:31.030Z,20.53
2022-11-28T23:22:48.494Z,20.45
2022-11-28T23:29:12.903Z,20.37
2022-11-28T23:35:37.313Z,20.29
2022-11-28T23:42:01.708Z,20.21
2022-11-28T23:48:25.988Z,20.14
2022-11-28T23:54:50.412Z,20.07
